sensor_id;sensor_type;location;lat;lon;timestamp;P1;durP1;ratioP1;P2;durP2;ratioP2
9834;SDS011;69850;50.942;13.748;2023-06-04T00:02:00;3.08;;;1.95;;
9834;SDS011;69850;50.942;13.748;2023-06-04T00:05:21;5.53;;;2.17;;
9834;SDS011;69850;50.942;13.748;2023-06-04T00:08:45;3.60;;;2.30;;
9834;SDS011;69850;50.942;13.748;2023-06-04T00:12:06;4.03;;;2.35;;
9834;SDS011;69850;50.942;13.748;2023-06-04T00:15:26;3.67;;;1.80;;
9834;SDS011;69850;50.942;13.748;2023-06-04T00:18:47;5.80;;;2.33;;
9834;SDS011;69850;50.942;13.748;2023-06-04T00:22:08;4.55;;;2.38;;
9834;SDS011;69850;50.942;13.748;2023-06-04T00:25:30;5.63;;;2.30;;
9834;SDS011;69850;50.942;13.748;2023-06-04T00:28:50;3.40;;;2.33;;
9834;SDS011;69850;50.942;13.748;2023-06-04T00:32:11;4.70;;;2.60;;
9834;SDS011;69850;50.942;13.748;2023-06-04T00:35:32;3.85;;;2.38;;
9834;SDS011;69850;50.942;13.748;2023-06-04T00:38:52;3.67;;;2.40;;
9834;SDS011;69850;50.942;13.748;2023-06-04T00:42:13;4.57;;;2.47;;
9834;SDS011;69850;50.942;13.748;2023-06-04T00:45:34;2.72;;;1.88;;
9834;SDS011;69850;50.942;13.748;2023-06-04T00:48:55;7.22;;;2.50;;
9834;SDS011;69850;50.942;13.748;2023-06-04T00:52:16;4.13;;;2.88;;
9834;SDS011;69850;50.942;13.748;2023-06-04T00:55:36;4.50;;;2.70;;
9834;SDS011;69850;50.942;13.748;2023-06-04T00:58:57;5.40;;;3.00;;
9834;SDS011;69850;50.942;13.748;2023-06-04T01:02:21;5.78;;;2.22;;
9834;SDS011;69850;50.942;13.748;2023-06-04T01:05:49;3.50;;;2.30;;
9834;SDS011;69850;50.942;13.748;2023-06-04T01:09:19;5.82;;;2.63;;
9834;SDS011;69850;50.942;13.748;2023-06-04T01:12:43;4.03;;;2.38;;
9834;SDS011;69850;50.942;13.748;2023-06-04T01:16:04;5.00;;;2.50;;
9834;SDS011;69850;50.942;13.748;2023-06-04T01:26:53;4.00;;;2.42;;
9834;SDS011;69850;50.942;13.748;2023-06-04T01:30:16;4.32;;;2.30;;
9834;SDS011;69850;50.942;13.748;2023-06-04T01:33:37;4.80;;;2.50;;
9834;SDS011;69850;50.942;13.748;2023-06-04T01:36:58;5.35;;;2.42;;
9834;SDS011;69850;50.942;13.748;2023-06-04T01:40:19;3.92;;;2.53;;
9834;SDS011;69850;50.942;13.748;2023-06-04T01:43:40;3.60;;;2.35;;
9834;SDS011;69850;50.942;13.748;2023-06-04T01:47:01;3.53;;;2.38;;
9834;SDS011;69850;50.942;13.748;2023-06-04T01:50:22;5.40;;;2.55;;
9834;SDS011;69850;50.942;13.748;2023-06-04T01:53:43;4.47;;;2.60;;
9834;SDS011;69850;50.942;13.748;2023-06-04T01:57:03;2.97;;;2.13;;
9834;SDS011;69850;50.942;13.748;2023-06-04T02:00:25;4.68;;;2.38;;
9834;SDS011;69850;50.942;13.748;2023-06-04T02:03:46;3.65;;;2.38;;
9834;SDS011;69850;50.942;13.748;2023-06-04T02:07:10;4.28;;;2.20;;
9834;SDS011;69850;50.942;13.748;2023-06-04T02:10:34;5.63;;;2.63;;
9834;SDS011;69850;50.942;13.748;2023-06-04T02:13:54;6.10;;;2.53;;
9834;SDS011;69850;50.942;13.748;2023-06-04T02:17:15;4.68;;;2.17;;
9834;SDS011;69850;50.942;13.748;2023-06-04T02:20:36;4.10;;;2.33;;
9834;SDS011;69850;50.942;13.748;2023-06-04T02:23:57;5.25;;;2.38;;
9834;SDS011;69850;50.942;13.748;2023-06-04T02:27:17;4.07;;;2.25;;
9834;SDS011;69850;50.942;13.748;2023-06-04T02:30:40;4.15;;;2.45;;
9834;SDS011;69850;50.942;13.748;2023-06-04T02:34:01;4.57;;;2.50;;
9834;SDS011;69850;50.942;13.748;2023-06-04T02:37:22;3.83;;;2.30;;
9834;SDS011;69850;50.942;13.748;2023-06-04T02:40:42;3.15;;;2.30;;
9834;SDS011;69850;50.942;13.748;2023-06-04T02:44:05;3.88;;;2.33;;
9834;SDS011;69850;50.942;13.748;2023-06-04T02:47:27;3.60;;;2.30;;
9834;SDS011;69850;50.942;13.748;2023-06-04T02:50:47;5.35;;;2.70;;
9834;SDS011;69850;50.942;13.748;2023-06-04T02:54:08;6.80;;;2.50;;
9834;SDS011;69850;50.942;13.748;2023-06-04T02:57:30;3.13;;;2.53;;
9834;SDS011;69850;50.942;13.748;2023-06-04T03:00:52;2.80;;;2.00;;
9834;SDS011;69850;50.942;13.748;2023-06-04T03:04:13;5.88;;;2.15;;
9834;SDS011;69850;50.942;13.748;2023-06-04T03:07:35;4.05;;;2.63;;
9834;SDS011;69850;50.942;13.748;2023-06-04T03:10:56;3.67;;;2.55;;
9834;SDS011;69850;50.942;13.748;2023-06-04T03:14:17;5.15;;;2.50;;
9834;SDS011;69850;50.942;13.748;2023-06-04T03:17:38;4.18;;;2.75;;
9834;SDS011;69850;50.942;13.748;2023-06-04T03:21:00;5.03;;;2.15;;
9834;SDS011;69850;50.942;13.748;2023-06-04T03:24:21;4.25;;;2.30;;
9834;SDS011;69850;50.942;13.748;2023-06-04T03:27:41;3.17;;;2.13;;
9834;SDS011;69850;50.942;13.748;2023-06-04T03:31:02;4.18;;;2.20;;
9834;SDS011;69850;50.942;13.748;2023-06-04T03:34:23;4.63;;;2.20;;
9834;SDS011;69850;50.942;13.748;2023-06-04T03:37:46;2.15;;;1.73;;
9834;SDS011;69850;50.942;13.748;2023-06-04T03:41:08;2.30;;;1.83;;
9834;SDS011;69850;50.942;13.748;2023-06-04T03:44:29;2.47;;;1.80;;
9834;SDS011;69850;50.942;13.748;2023-06-04T03:47:50;2.85;;;1.60;;
9834;SDS011;69850;50.942;13.748;2023-06-04T03:51:11;2.42;;;1.73;;
9834;SDS011;69850;50.942;13.748;2023-06-04T03:54:33;3.65;;;2.13;;
9834;SDS011;69850;50.942;13.748;2023-06-04T03:57:54;6.20;;;2.75;;
9834;SDS011;69850;50.942;13.748;2023-06-04T04:01:14;4.78;;;2.60;;
9834;SDS011;69850;50.942;13.748;2023-06-04T04:04:35;2.53;;;1.85;;
9834;SDS011;69850;50.942;13.748;2023-06-04T04:07:56;1.50;;;1.27;;
9834;SDS011;69850;50.942;13.748;2023-06-04T04:11:20;3.05;;;1.60;;
9834;SDS011;69850;50.942;13.748;2023-06-04T04:14:42;2.97;;;1.45;;
9834;SDS011;69850;50.942;13.748;2023-06-04T04:18:02;2.70;;;1.77;;
9834;SDS011;69850;50.942;13.748;2023-06-04T04:21:23;3.35;;;1.73;;
9834;SDS011;69850;50.942;13.748;2023-06-04T04:24:45;4.50;;;1.67;;
9834;SDS011;69850;50.942;13.748;2023-06-04T04:28:06;2.97;;;1.95;;
9834;SDS011;69850;50.942;13.748;2023-06-04T04:31:27;3.70;;;1.77;;
9834;SDS011;69850;50.942;13.748;2023-06-04T04:34:51;3.20;;;1.70;;
9834;SDS011;69850;50.942;13.748;2023-06-04T04:38:14;5.13;;;3.67;;
9834;SDS011;69850;50.942;13.748;2023-06-04T04:41:42;4.13;;;2.08;;
9834;SDS011;69850;50.942;13.748;2023-06-04T04:45:03;2.60;;;2.17;;
9834;SDS011;69850;50.942;13.748;2023-06-04T04:48:26;3.63;;;1.98;;
9834;SDS011;69850;50.942;13.748;2023-06-04T04:51:47;2.78;;;2.10;;
9834;SDS011;69850;50.942;13.748;2023-06-04T04:55:09;2.10;;;1.73;;
9834;SDS011;69850;50.942;13.748;2023-06-04T04:58:31;3.38;;;2.10;;
9834;SDS011;69850;50.942;13.748;2023-06-04T05:01:53;3.83;;;2.10;;
9834;SDS011;69850;50.942;13.748;2023-06-04T05:05:13;2.85;;;2.08;;
9834;SDS011;69850;50.942;13.748;2023-06-04T05:08:36;3.25;;;2.05;;
9834;SDS011;69850;50.942;13.748;2023-06-04T05:11:57;2.15;;;1.90;;
9834;SDS011;69850;50.942;13.748;2023-06-04T05:15:18;2.33;;;1.90;;
9834;SDS011;69850;50.942;13.748;2023-06-04T05:18:41;3.30;;;1.77;;
9834;SDS011;69850;50.942;13.748;2023-06-04T05:22:04;4.60;;;1.90;;
9834;SDS011;69850;50.942;13.748;2023-06-04T05:25:25;2.75;;;1.80;;
9834;SDS011;69850;50.942;13.748;2023-06-04T05:28:48;3.45;;;1.80;;
9834;SDS011;69850;50.942;13.748;2023-06-04T05:32:11;2.90;;;1.75;;
9834;SDS011;69850;50.942;13.748;2023-06-04T05:35:32;4.88;;;1.77;;
9834;SDS011;69850;50.942;13.748;2023-06-04T05:38:54;5.05;;;2.08;;
9834;SDS011;69850;50.942;13.748;2023-06-04T05:42:38;2.08;;;1.50;;
9834;SDS011;69850;50.942;13.748;2023-06-04T05:45:59;1.98;;;1.60;;
9834;SDS011;69850;50.942;13.748;2023-06-04T05:49:21;3.55;;;1.75;;
9834;SDS011;69850;50.942;13.748;2023-06-04T05:52:45;2.65;;;1.95;;
9834;SDS011;69850;50.942;13.748;2023-06-04T05:56:06;3.53;;;1.60;;
9834;SDS011;69850;50.942;13.748;2023-06-04T05:59:27;2.67;;;1.70;;
9834;SDS011;69850;50.942;13.748;2023-06-04T06:02:50;5.72;;;1.80;;
9834;SDS011;69850;50.942;13.748;2023-06-04T06:06:25;2.53;;;1.98;;
9834;SDS011;69850;50.942;13.748;2023-06-04T06:09:46;2.97;;;2.00;;
9834;SDS011;69850;50.942;13.748;2023-06-04T06:13:07;2.55;;;1.90;;
9834;SDS011;69850;50.942;13.748;2023-06-04T06:16:28;4.07;;;1.95;;
9834;SDS011;69850;50.942;13.748;2023-06-04T06:19:48;2.47;;;1.60;;
9834;SDS011;69850;50.942;13.748;2023-06-04T06:23:09;2.00;;;1.70;;
9834;SDS011;69850;50.942;13.748;2023-06-04T06:26:33;5.50;;;1.80;;
9834;SDS011;69850;50.942;13.748;2023-06-04T06:29:55;2.40;;;1.50;;
9834;SDS011;69850;50.942;13.748;2023-06-04T06:33:17;4.63;;;1.67;;
9834;SDS011;69850;50.942;13.748;2023-06-04T06:36:41;2.67;;;1.50;;
9834;SDS011;69850;50.942;13.748;2023-06-04T06:40:02;4.70;;;1.60;;
9834;SDS011;69850;50.942;13.748;2023-06-04T06:43:24;3.63;;;1.70;;
9834;SDS011;69850;50.942;13.748;2023-06-04T06:46:44;2.67;;;1.80;;
9834;SDS011;69850;50.942;13.748;2023-06-04T06:50:05;1.77;;;1.60;;
9834;SDS011;69850;50.942;13.748;2023-06-04T06:53:26;2.72;;;1.80;;
9834;SDS011;69850;50.942;13.748;2023-06-04T06:56:49;3.97;;;1.70;;
9834;SDS011;69850;50.942;13.748;2023-06-04T07:00:11;2.92;;;1.67;;
9834;SDS011;69850;50.942;13.748;2023-06-04T07:03:32;3.85;;;2.25;;
9834;SDS011;69850;50.942;13.748;2023-06-04T07:06:52;4.28;;;1.90;;
9834;SDS011;69850;50.942;13.748;2023-06-04T07:10:13;2.78;;;1.60;;
9834;SDS011;69850;50.942;13.748;2023-06-04T07:13:34;2.72;;;1.60;;
9834;SDS011;69850;50.942;13.748;2023-06-04T07:16:55;4.60;;;1.88;;
9834;SDS011;69850;50.942;13.748;2023-06-04T07:20:15;3.33;;;1.80;;
9834;SDS011;69850;50.942;13.748;2023-06-04T07:23:36;3.22;;;1.88;;
9834;SDS011;69850;50.942;13.748;2023-06-04T07:26:57;4.63;;;1.90;;
9834;SDS011;69850;50.942;13.748;2023-06-04T07:30:17;5.32;;;2.28;;
9834;SDS011;69850;50.942;13.748;2023-06-04T07:33:38;3.95;;;2.00;;
9834;SDS011;69850;50.942;13.748;2023-06-04T07:37:03;4.75;;;2.38;;
9834;SDS011;69850;50.942;13.748;2023-06-04T07:40:24;6.18;;;1.90;;
9834;SDS011;69850;50.942;13.748;2023-06-04T07:43:44;4.47;;;2.10;;
9834;SDS011;69850;50.942;13.748;2023-06-04T07:47:05;3.40;;;1.70;;
9834;SDS011;69850;50.942;13.748;2023-06-04T07:50:26;1.83;;;1.60;;
9834;SDS011;69850;50.942;13.748;2023-06-04T07:53:46;3.58;;;1.75;;
9834;SDS011;69850;50.942;13.748;2023-06-04T07:57:07;5.90;;;2.05;;
9834;SDS011;69850;50.942;13.748;2023-06-04T08:00:28;3.17;;;1.50;;
9834;SDS011;69850;50.942;13.748;2023-06-04T08:03:49;2.92;;;1.50;;
9834;SDS011;69850;50.942;13.748;2023-06-04T08:07:10;3.45;;;1.55;;
9834;SDS011;69850;50.942;13.748;2023-06-04T08:10:31;2.13;;;1.50;;
9834;SDS011;69850;50.942;13.748;2023-06-04T08:13:51;2.15;;;1.25;;
9834;SDS011;69850;50.942;13.748;2023-06-04T08:17:12;4.22;;;1.60;;
9834;SDS011;69850;50.942;13.748;2023-06-04T08:20:32;4.45;;;1.50;;
9834;SDS011;69850;50.942;13.748;2023-06-04T08:23:53;1.63;;;1.00;;
9834;SDS011;69850;50.942;13.748;2023-06-04T08:27:14;4.13;;;1.60;;
9834;SDS011;69850;50.942;13.748;2023-06-04T08:30:35;3.20;;;1.65;;
9834;SDS011;69850;50.942;13.748;2023-06-04T08:33:57;3.50;;;1.33;;
9834;SDS011;69850;50.942;13.748;2023-06-04T08:37:17;1.77;;;1.10;;
9834;SDS011;69850;50.942;13.748;2023-06-04T08:40:38;1.10;;;0.93;;
9834;SDS011;69850;50.942;13.748;2023-06-04T08:43:59;2.17;;;1.00;;
9834;SDS011;69850;50.942;13.748;2023-06-04T08:47:21;1.27;;;1.10;;
9834;SDS011;69850;50.942;13.748;2023-06-04T08:50:46;3.30;;;1.10;;
9834;SDS011;69850;50.942;13.748;2023-06-04T08:54:08;2.25;;;1.25;;
9834;SDS011;69850;50.942;13.748;2023-06-04T08:57:30;3.38;;;1.60;;
9834;SDS011;69850;50.942;13.748;2023-06-04T09:00:51;1.95;;;1.10;;
9834;SDS011;69850;50.942;13.748;2023-06-04T09:04:11;4.60;;;1.55;;
9834;SDS011;69850;50.942;13.748;2023-06-04T09:07:33;2.42;;;1.45;;
9834;SDS011;69850;50.942;13.748;2023-06-04T09:10:55;3.45;;;1.75;;
9834;SDS011;69850;50.942;13.748;2023-06-04T09:14:16;2.53;;;1.30;;
9834;SDS011;69850;50.942;13.748;2023-06-04T09:17:37;3.10;;;1.23;;
9834;SDS011;69850;50.942;13.748;2023-06-04T09:21:04;3.05;;;1.30;;
9834;SDS011;69850;50.942;13.748;2023-06-04T09:24:44;2.50;;;1.40;;
9834;SDS011;69850;50.942;13.748;2023-06-04T09:28:12;3.25;;;1.20;;
9834;SDS011;69850;50.942;13.748;2023-06-04T09:31:33;2.35;;;1.08;;
9834;SDS011;69850;50.942;13.748;2023-06-04T09:35:30;1.90;;;1.17;;
9834;SDS011;69850;50.942;13.748;2023-06-04T09:38:45;1.60;;;1.20;;
9834;SDS011;69850;50.942;13.748;2023-06-04T09:42:09;4.43;;;1.05;;
9834;SDS011;69850;50.942;13.748;2023-06-04T09:45:31;2.25;;;1.30;;
9834;SDS011;69850;50.942;13.748;2023-06-04T09:48:58;2.80;;;1.20;;
9834;SDS011;69850;50.942;13.748;2023-06-04T09:52:31;3.63;;;1.30;;
9834;SDS011;69850;50.942;13.748;2023-06-04T09:56:00;2.03;;;0.60;;
9834;SDS011;69850;50.942;13.748;2023-06-04T09:59:21;2.90;;;1.20;;
9834;SDS011;69850;50.942;13.748;2023-06-04T10:02:42;5.38;;;1.23;;
9834;SDS011;69850;50.942;13.748;2023-06-04T10:06:04;2.95;;;0.90;;
9834;SDS011;69850;50.942;13.748;2023-06-04T10:09:26;1.75;;;1.10;;
9834;SDS011;69850;50.942;13.748;2023-06-04T10:12:50;2.63;;;1.15;;
9834;SDS011;69850;50.942;13.748;2023-06-04T10:16:14;1.42;;;1.17;;
9834;SDS011;69850;50.942;13.748;2023-06-04T10:19:36;3.10;;;1.50;;
9834;SDS011;69850;50.942;13.748;2023-06-04T10:22:58;3.25;;;1.25;;
9834;SDS011;69850;50.942;13.748;2023-06-04T10:26:20;4.13;;;1.20;;
9834;SDS011;69850;50.942;13.748;2023-06-04T10:29:41;2.05;;;1.30;;
9834;SDS011;69850;50.942;13.748;2023-06-04T10:33:02;1.73;;;1.10;;
9834;SDS011;69850;50.942;13.748;2023-06-04T10:36:24;3.80;;;1.25;;
9834;SDS011;69850;50.942;13.748;2023-06-04T10:39:49;2.22;;;1.05;;
9834;SDS011;69850;50.942;13.748;2023-06-04T10:43:12;8.45;;;5.47;;
9834;SDS011;69850;50.942;13.748;2023-06-04T10:46:40;12.73;;;1.70;;
9834;SDS011;69850;50.942;13.748;2023-06-04T10:50:08;3.88;;;1.38;;
9834;SDS011;69850;50.942;13.748;2023-06-04T10:53:36;2.00;;;1.05;;
9834;SDS011;69850;50.942;13.748;2023-06-04T10:56:56;6.00;;;1.10;;
9834;SDS011;69850;50.942;13.748;2023-06-04T11:00:17;2.10;;;1.35;;
9834;SDS011;69850;50.942;13.748;2023-06-04T11:03:38;2.15;;;1.70;;
9834;SDS011;69850;50.942;13.748;2023-06-04T11:07:02;2.60;;;1.40;;
9834;SDS011;69850;50.942;13.748;2023-06-04T11:10:30;3.13;;;1.58;;
9834;SDS011;69850;50.942;13.748;2023-06-04T11:13:53;2.88;;;1.40;;
9834;SDS011;69850;50.942;13.748;2023-06-04T11:17:14;3.88;;;1.20;;
9834;SDS011;69850;50.942;13.748;2023-06-04T11:20:35;1.27;;;0.77;;
9834;SDS011;69850;50.942;13.748;2023-06-04T11:23:58;3.13;;;1.40;;
9834;SDS011;69850;50.942;13.748;2023-06-04T11:27:19;3.10;;;1.45;;
9834;SDS011;69850;50.942;13.748;2023-06-04T11:30:40;2.00;;;1.30;;
9834;SDS011;69850;50.942;13.748;2023-06-04T11:34:01;3.42;;;1.20;;
9834;SDS011;69850;50.942;13.748;2023-06-04T11:37:21;1.92;;;1.17;;
9834;SDS011;69850;50.942;13.748;2023-06-04T11:40:42;4.05;;;1.42;;
9834;SDS011;69850;50.942;13.748;2023-06-04T11:44:04;2.55;;;1.50;;
9834;SDS011;69850;50.942;13.748;2023-06-04T11:47:26;2.15;;;1.20;;
9834;SDS011;69850;50.942;13.748;2023-06-04T11:50:46;2.58;;;1.10;;
9834;SDS011;69850;50.942;13.748;2023-06-04T11:54:07;2.70;;;1.33;;
9834;SDS011;69850;50.942;13.748;2023-06-04T11:57:28;3.38;;;1.38;;
9834;SDS011;69850;50.942;13.748;2023-06-04T12:00:50;3.00;;;1.60;;
9834;SDS011;69850;50.942;13.748;2023-06-04T12:04:11;4.57;;;1.45;;
9834;SDS011;69850;50.942;13.748;2023-06-04T12:07:33;2.65;;;1.27;;
9834;SDS011;69850;50.942;13.748;2023-06-04T12:10:53;2.60;;;1.20;;
9834;SDS011;69850;50.942;13.748;2023-06-04T12:14:17;2.55;;;1.20;;
9834;SDS011;69850;50.942;13.748;2023-06-04T12:17:51;6.20;;;1.50;;
9834;SDS011;69850;50.942;13.748;2023-06-04T12:21:22;3.00;;;1.20;;
9834;SDS011;69850;50.942;13.748;2023-06-04T12:24:53;2.65;;;1.48;;
9834;SDS011;69850;50.942;13.748;2023-06-04T12:28:19;2.75;;;1.30;;
9834;SDS011;69850;50.942;13.748;2023-06-04T12:31:43;1.95;;;1.30;;
9834;SDS011;69850;50.942;13.748;2023-06-04T12:35:05;3.85;;;1.40;;
9834;SDS011;69850;50.942;13.748;2023-06-04T12:38:26;3.25;;;1.65;;
9834;SDS011;69850;50.942;13.748;2023-06-04T12:41:47;2.38;;;1.48;;
9834;SDS011;69850;50.942;13.748;2023-06-04T12:45:08;3.80;;;1.40;;
9834;SDS011;69850;50.942;13.748;2023-06-04T12:48:30;2.42;;;1.40;;
9834;SDS011;69850;50.942;13.748;2023-06-04T12:51:50;2.22;;;1.48;;
9834;SDS011;69850;50.942;13.748;2023-06-04T12:55:11;4.32;;;1.40;;
9834;SDS011;69850;50.942;13.748;2023-06-04T12:58:31;1.85;;;1.20;;
9834;SDS011;69850;50.942;13.748;2023-06-04T13:01:52;1.77;;;1.45;;
9834;SDS011;69850;50.942;13.748;2023-06-04T13:05:13;1.83;;;1.17;;
9834;SDS011;69850;50.942;13.748;2023-06-04T13:08:34;2.05;;;1.38;;
9834;SDS011;69850;50.942;13.748;2023-06-04T13:11:55;1.27;;;0.95;;
9834;SDS011;69850;50.942;13.748;2023-06-04T13:15:15;3.40;;;1.30;;
9834;SDS011;69850;50.942;13.748;2023-06-04T13:18:36;1.00;;;0.63;;
9834;SDS011;69850;50.942;13.748;2023-06-04T13:21:58;5.85;;;1.67;;
9834;SDS011;69850;50.942;13.748;2023-06-04T13:25:19;2.00;;;1.33;;
9834;SDS011;69850;50.942;13.748;2023-06-04T13:28:39;3.63;;;1.88;;
9834;SDS011;69850;50.942;13.748;2023-06-04T13:32:00;3.58;;;1.50;;
9834;SDS011;69850;50.942;13.748;2023-06-04T13:35:21;3.15;;;1.77;;
9834;SDS011;69850;50.942;13.748;2023-06-04T13:38:42;2.40;;;1.23;;
9834;SDS011;69850;50.942;13.748;2023-06-04T13:42:03;5.55;;;1.50;;
9834;SDS011;69850;50.942;13.748;2023-06-04T13:45:23;3.03;;;1.50;;
9834;SDS011;69850;50.942;13.748;2023-06-04T13:48:44;4.10;;;1.60;;
9834;SDS011;69850;50.942;13.748;2023-06-04T13:52:05;3.75;;;1.60;;
9834;SDS011;69850;50.942;13.748;2023-06-04T13:55:25;2.28;;;1.30;;
9834;SDS011;69850;50.942;13.748;2023-06-04T13:58:46;2.35;;;1.40;;
9834;SDS011;69850;50.942;13.748;2023-06-04T14:02:07;3.03;;;1.60;;
9834;SDS011;69850;50.942;13.748;2023-06-04T14:05:28;2.63;;;1.60;;
9834;SDS011;69850;50.942;13.748;2023-06-04T14:08:48;1.80;;;1.52;;
9834;SDS011;69850;50.942;13.748;2023-06-04T14:12:09;3.10;;;1.52;;
9834;SDS011;69850;50.942;13.748;2023-06-04T14:15:29;2.53;;;1.40;;
9834;SDS011;69850;50.942;13.748;2023-06-04T14:18:50;2.38;;;1.40;;
9834;SDS011;69850;50.942;13.748;2023-06-04T14:22:11;2.70;;;1.50;;
9834;SDS011;69850;50.942;13.748;2023-06-04T14:25:32;2.85;;;1.35;;
9834;SDS011;69850;50.942;13.748;2023-06-04T14:28:56;4.93;;;1.60;;
9834;SDS011;69850;50.942;13.748;2023-06-04T14:32:17;5.10;;;1.50;;
9834;SDS011;69850;50.942;13.748;2023-06-04T14:35:39;2.08;;;1.50;;
9834;SDS011;69850;50.942;13.748;2023-06-04T14:39:04;1.98;;;1.40;;
9834;SDS011;69850;50.942;13.748;2023-06-04T14:42:25;2.75;;;1.50;;
9834;SDS011;69850;50.942;13.748;2023-06-04T14:45:45;4.57;;;1.70;;
9834;SDS011;69850;50.942;13.748;2023-06-04T14:49:06;2.35;;;1.00;;
9834;SDS011;69850;50.942;13.748;2023-06-04T14:52:27;3.28;;;1.42;;
9834;SDS011;69850;50.942;13.748;2023-06-04T14:55:48;1.88;;;1.35;;
9834;SDS011;69850;50.942;13.748;2023-06-04T14:59:09;0.38;;;0.32;;
9834;SDS011;69850;50.942;13.748;2023-06-04T15:02:31;5.57;;;1.48;;
9834;SDS011;69850;50.942;13.748;2023-06-04T15:05:52;3.22;;;1.60;;
9834;SDS011;69850;50.942;13.748;2023-06-04T15:09:13;2.58;;;1.48;;
9834;SDS011;69850;50.942;13.748;2023-06-04T15:12:34;1.40;;;1.13;;
9834;SDS011;69850;50.942;13.748;2023-06-04T15:15:58;4.32;;;1.50;;
9834;SDS011;69850;50.942;13.748;2023-06-04T15:19:18;3.08;;;1.50;;
9834;SDS011;69850;50.942;13.748;2023-06-04T15:22:39;2.58;;;1.40;;
9834;SDS011;69850;50.942;13.748;2023-06-04T15:26:00;2.78;;;1.63;;
9834;SDS011;69850;50.942;13.748;2023-06-04T15:29:20;1.98;;;1.30;;
9834;SDS011;69850;50.942;13.748;2023-06-04T15:32:41;1.92;;;1.30;;
9834;SDS011;69850;50.942;13.748;2023-06-04T15:36:02;2.60;;;1.85;;
9834;SDS011;69850;50.942;13.748;2023-06-04T15:39:22;1.92;;;1.35;;
9834;SDS011;69850;50.942;13.748;2023-06-04T15:42:43;1.80;;;1.45;;
9834;SDS011;69850;50.942;13.748;2023-06-04T15:46:03;1.33;;;1.23;;
9834;SDS011;69850;50.942;13.748;2023-06-04T15:49:24;2.05;;;1.27;;
9834;SDS011;69850;50.942;13.748;2023-06-04T15:52:45;2.70;;;1.50;;
9834;SDS011;69850;50.942;13.748;2023-06-04T15:56:06;5.18;;;1.35;;
9834;SDS011;69850;50.942;13.748;2023-06-04T15:59:26;2.28;;;1.40;;
9834;SDS011;69850;50.942;13.748;2023-06-04T16:02:47;3.90;;;1.40;;
9834;SDS011;69850;50.942;13.748;2023-06-04T16:06:07;4.65;;;1.50;;
9834;SDS011;69850;50.942;13.748;2023-06-04T16:09:30;3.10;;;1.60;;
9834;SDS011;69850;50.942;13.748;2023-06-04T16:12:51;1.70;;;1.25;;
9834;SDS011;69850;50.942;13.748;2023-06-04T16:16:11;4.65;;;1.38;;
9834;SDS011;69850;50.942;13.748;2023-06-04T16:19:32;2.85;;;1.40;;
9834;SDS011;69850;50.942;13.748;2023-06-04T16:22:53;3.33;;;1.27;;
9834;SDS011;69850;50.942;13.748;2023-06-04T16:26:13;1.55;;;1.40;;
9834;SDS011;69850;50.942;13.748;2023-06-04T16:29:34;5.65;;;1.55;;
9834;SDS011;69850;50.942;13.748;2023-06-04T16:32:55;1.73;;;1.30;;
9834;SDS011;69850;50.942;13.748;2023-06-04T16:36:16;3.75;;;1.60;;
9834;SDS011;69850;50.942;13.748;2023-06-04T16:39:36;1.38;;;1.20;;
9834;SDS011;69850;50.942;13.748;2023-06-04T16:42:57;1.98;;;1.50;;
9834;SDS011;69850;50.942;13.748;2023-06-04T16:46:18;2.60;;;1.30;;
9834;SDS011;69850;50.942;13.748;2023-06-04T16:49:38;5.13;;;1.38;;
9834;SDS011;69850;50.942;13.748;2023-06-04T16:52:59;5.30;;;1.45;;
9834;SDS011;69850;50.942;13.748;2023-06-04T16:56:20;4.13;;;1.48;;
9834;SDS011;69850;50.942;13.748;2023-06-04T16:59:45;2.17;;;1.38;;
9834;SDS011;69850;50.942;13.748;2023-06-04T17:03:06;1.63;;;1.23;;
9834;SDS011;69850;50.942;13.748;2023-06-04T17:06:27;4.68;;;1.63;;
9834;SDS011;69850;50.942;13.748;2023-06-04T17:09:47;3.15;;;1.50;;
9834;SDS011;69850;50.942;13.748;2023-06-04T17:13:08;2.50;;;1.50;;
9834;SDS011;69850;50.942;13.748;2023-06-04T17:16:28;5.07;;;1.65;;
9834;SDS011;69850;50.942;13.748;2023-06-04T17:19:49;2.55;;;1.80;;
9834;SDS011;69850;50.942;13.748;2023-06-04T17:23:22;3.63;;;1.67;;
9834;SDS011;69850;50.942;13.748;2023-06-04T17:26:44;2.75;;;1.58;;
9834;SDS011;69850;50.942;13.748;2023-06-04T17:30:05;2.15;;;1.60;;
9834;SDS011;69850;50.942;13.748;2023-06-04T17:33:26;4.00;;;1.60;;
9834;SDS011;69850;50.942;13.748;2023-06-04T17:36:46;2.38;;;1.80;;
9834;SDS011;69850;50.942;13.748;2023-06-04T17:40:07;1.80;;;1.70;;
9834;SDS011;69850;50.942;13.748;2023-06-04T17:43:28;2.20;;;1.60;;
9834;SDS011;69850;50.942;13.748;2023-06-04T17:46:49;2.92;;;1.42;;
9834;SDS011;69850;50.942;13.748;2023-06-04T17:50:10;2.08;;;1.48;;
9834;SDS011;69850;50.942;13.748;2023-06-04T17:53:31;3.00;;;1.75;;
9834;SDS011;69850;50.942;13.748;2023-06-04T17:56:52;2.30;;;1.67;;
9834;SDS011;69850;50.942;13.748;2023-06-04T18:00:13;3.53;;;1.83;;
9834;SDS011;69850;50.942;13.748;2023-06-04T18:03:34;4.63;;;1.65;;
9834;SDS011;69850;50.942;13.748;2023-06-04T18:06:55;2.03;;;1.67;;
9834;SDS011;69850;50.942;13.748;2023-06-04T18:10:15;3.75;;;1.95;;
9834;SDS011;69850;50.942;13.748;2023-06-04T18:13:36;2.53;;;1.70;;
9834;SDS011;69850;50.942;13.748;2023-06-04T18:16:57;4.55;;;1.73;;
9834;SDS011;69850;50.942;13.748;2023-06-04T18:20:17;2.92;;;1.63;;
9834;SDS011;69850;50.942;13.748;2023-06-04T18:23:38;4.63;;;1.60;;
9834;SDS011;69850;50.942;13.748;2023-06-04T18:26:58;4.75;;;1.67;;
9834;SDS011;69850;50.942;13.748;2023-06-04T18:30:20;3.88;;;1.65;;
9834;SDS011;69850;50.942;13.748;2023-06-04T18:33:53;3.92;;;2.00;;
9834;SDS011;69850;50.942;13.748;2023-06-04T18:37:20;5.28;;;1.77;;
9834;SDS011;69850;50.942;13.748;2023-06-04T18:40:40;3.28;;;1.70;;
9834;SDS011;69850;50.942;13.748;2023-06-04T18:44:01;5.10;;;1.67;;
9834;SDS011;69850;50.942;13.748;2023-06-04T18:47:22;2.72;;;1.90;;
9834;SDS011;69850;50.942;13.748;2023-06-04T18:50:42;5.70;;;1.70;;
9834;SDS011;69850;50.942;13.748;2023-06-04T18:54:05;4.22;;;1.75;;
9834;SDS011;69850;50.942;13.748;2023-06-04T18:57:26;3.17;;;1.70;;
9834;SDS011;69850;50.942;13.748;2023-06-04T19:00:47;1.85;;;1.40;;
9834;SDS011;69850;50.942;13.748;2023-06-04T19:04:08;3.83;;;1.75;;
9834;SDS011;69850;50.942;13.748;2023-06-04T19:07:29;2.38;;;1.42;;
9834;SDS011;69850;50.942;13.748;2023-06-04T19:10:50;3.60;;;1.63;;
9834;SDS011;69850;50.942;13.748;2023-06-04T19:14:12;1.45;;;1.35;;
9834;SDS011;69850;50.942;13.748;2023-06-04T19:17:32;3.58;;;1.83;;
9834;SDS011;69850;50.942;13.748;2023-06-04T19:20:53;1.70;;;1.50;;
9834;SDS011;69850;50.942;13.748;2023-06-04T19:24:13;4.07;;;2.00;;
9834;SDS011;69850;50.942;13.748;2023-06-04T19:27:34;3.28;;;1.70;;
9834;SDS011;69850;50.942;13.748;2023-06-04T19:30:55;4.90;;;1.88;;
9834;SDS011;69850;50.942;13.748;2023-06-04T19:34:16;2.67;;;1.50;;
9834;SDS011;69850;50.942;13.748;2023-06-04T19:37:36;2.92;;;1.88;;
9834;SDS011;69850;50.942;13.748;2023-06-04T19:40:57;3.05;;;1.48;;
9834;SDS011;69850;50.942;13.748;2023-06-04T19:44:18;3.30;;;1.73;;
9834;SDS011;69850;50.942;13.748;2023-06-04T19:47:39;3.45;;;1.80;;
9834;SDS011;69850;50.942;13.748;2023-06-04T19:51:00;3.22;;;1.70;;
9834;SDS011;69850;50.942;13.748;2023-06-04T19:54:21;3.38;;;1.60;;
9834;SDS011;69850;50.942;13.748;2023-06-04T19:57:42;2.95;;;1.60;;
9834;SDS011;69850;50.942;13.748;2023-06-04T20:01:03;3.92;;;1.90;;
9834;SDS011;69850;50.942;13.748;2023-06-04T20:04:24;2.47;;;1.70;;
9834;SDS011;69850;50.942;13.748;2023-06-04T20:07:45;3.45;;;1.67;;
9834;SDS011;69850;50.942;13.748;2023-06-04T20:11:06;2.92;;;1.40;;
9834;SDS011;69850;50.942;13.748;2023-06-04T20:14:27;2.38;;;1.65;;
9834;SDS011;69850;50.942;13.748;2023-06-04T20:17:47;3.00;;;1.70;;
9834;SDS011;69850;50.942;13.748;2023-06-04T20:21:08;5.20;;;1.70;;
9834;SDS011;69850;50.942;13.748;2023-06-04T20:24:29;3.53;;;1.80;;